Latest Coastal Weather Observations for Tasman Island

IDT60701

Issued at 2:52 pm EDT Tuesday 17 October 2017 (issued every 10 minutes, with the page automatically refreshed every 10 minutes)

About coastal observations | Map of coastal stations | Coastal observations for TAS | Marine services | Other Formats
Station Details ID: 094155 Name: TASMAN ISLAND Lat: -43.24 Lon: 148.00 Height: 240.0 m
Data from the previous 72 hours. | See also: Recent months at Tasman Island
Date/Time
EDT
Temp
°C
Wind Pressure Rain since
9am
mm
Weather Cloud Vis
km
Sea
Height
m
Swell
Dir  Spd
kts
Gust
kts
hPa Trend Height
m
Period
s
Dir
17/02:30pm 22.6 NNE 6 9 1022.4 - 0.0 - - - - - - -
17/02:00pm 22.4 NNE 7 8 1022.5 - 0.0 - - - - - - -
17/01:30pm 23.3 NW 3 6 1022.5 - 0.0 - - - - - - -
17/01:00pm 22.1 NW 4 7 1022.7 - 0.0 - - - - - - -
17/12:30pm 22.1 NW 4 7 1022.9 - 0.0 - - - - - - -
17/12:00pm 22.8 NW 3 5 1022.9 - 0.0 - - - - - - -
17/11:30am 22.0 WNW 5 7 1023.2 - 0.0 - - - - - - -
17/11:00am 21.1 NW 3 7 1023.5 - 0.0 - - - - - - -
17/10:30am 19.4 N 5 7 1023.7 - 0.0 - - - - - - -
17/10:00am 18.4 N 5 7 1023.4 - 0.0 - - - - - - -
17/09:30am 18.3 N 4 7 1023.4 - 0.0 - - - - - - -
17/09:00am 17.4 NW 4 5 1023.3 - 0.0 - - - - - - -
17/08:30am 16.9 WNW 5 7 1023.1 - 0.0 - - - - - - -
17/08:00am 17.0 NNW 5 8 1022.9 - 0.0 - - - - - - -
17/07:30am 16.1 WNW 2 7 1022.7 - 0.0 - - - - - - -
17/07:00am 14.7 NNW 2 5 1022.2 - 0.0 - - - - - - -
17/06:30am 14.2 NNW 5 8 1021.9 - 0.0 - - - - - - -
17/06:00am 13.9 NNW 5 10 1021.8 - 0.0 - - - - - - -
17/05:30am 13.4 N 5 7 1021.8 - 0.0 - - - - - - -
17/05:00am 12.6 N 5 7 1021.7 - 0.0 - - - - - - -
17/04:30am 13.6 NNE 4 5 1021.8 - 0.0 - - - - - - -
17/04:00am 14.0 NNW 2 5 1021.9 - 0.0 - - - - - - -
17/03:30am 14.4 NW 4 5 1022.0 - 0.0 - - - - - - -
17/03:00am 14.8 NW 2 4 1022.0 - 0.0 - - - - - - -
17/02:30am 14.7 NW 2 3 1022.2 - 0.0 - - - - - - -
17/02:00am 14.5 NNW 5 7 1022.6 - 0.0 - - - - - - -
17/01:30am 15.3 N 10 15 1022.8 - 0.0 - - - - - - -
17/01:00am 14.8 N 6 9 1023.3 - 0.0 - - - - - - -
17/12:30am 12.3 NE 9 11 1023.4 - 0.0 - - - - - - -
17/12:00am 11.3 NE 8 11 1023.9 - 0.0 - - - - - - -
 
Date/Time
EDT
Temp
°C
Wind Pressure Rain since
9am
mm
Weather Cloud Vis
km
Sea
Height
m
Swell
Dir  Spd
kts
Gust
kts
hPa Trend Height
m
Period
s
Dir
16/11:30pm 11.4 NE 10 11 1023.9 - 0.0 - - - - - - -
16/11:00pm 11.3 NE 9 11 1024.2 - 0.0 - - - - - - -
16/10:30pm 11.4 NE 7 9 1024.5 - 0.0 - - - - - - -
16/10:00pm 11.5 NE 6 9 1024.9 - 0.0 - - - - - - -
16/09:30pm 13.5 NE 6 8 1025.0 - 0.0 - - - - - - -
16/09:00pm 13.4 NNE 7 9 1025.0 - 0.0 - - - - - - -
16/08:30pm 13.7 NNE 8 12 1024.8 - 0.0 - - - - - - -
16/08:00pm 14.2 NE 9 13 1024.5 - 0.0 - - - - - - -
16/07:30pm 13.9 NE 11 15 1024.2 - 0.0 - - - - - - -
16/07:00pm 13.3 NE 10 13 1024.1 - 0.0 - - - - - - -
16/06:30pm 13.6 NE 8 11 1024.3 - 0.0 - - - - - - -
16/06:00pm 14.8 NE 8 11 1024.1 - 0.0 - - - - - - -
16/05:30pm 15.7 NE 9 13 1023.9 - 0.0 - - - - - - -
16/05:00pm 16.1 NE 8 11 1023.9 - 0.0 - - - - - - -
16/04:30pm 17.8 NE 8 11 1023.9 - 0.0 - - - - - - -
16/04:00pm 17.9 NE 8 11 1023.9 - 0.0 - - - - - - -
16/03:30pm 18.9 ENE 5 7 1024.0 - 0.0 - - - - - - -
16/03:00pm 19.1 E 4 7 1024.3 - 0.0 - - - - - - -
16/02:30pm 18.5 ESE 4 6 1024.5 - 0.0 - - - - - - -
16/02:00pm 19.2 N 3 5 1024.6 - 0.0 - - - - - - -
16/01:30pm 20.3 NW 3 5 1024.7 - 0.0 - - - - - - -
16/01:00pm 19.1 ENE 2 5 1024.7 - 0.0 - - - - - - -
16/12:30pm 19.4 WNW 2 4 1024.8 - 0.0 - - - - - - -
16/12:00pm 16.2 NNW 3 5 1024.9 - 0.0 - - - - - - -
16/11:30am 15.4 NNE 4 7 1025.0 - 0.0 - - - - - - -
16/11:00am 15.2 N 4 7 1025.4 - 0.0 - - - - - - -
16/10:30am 14.4 N 4 8 1025.6 - 0.0 - - - - - - -
16/10:00am 12.9 NNE 8 11 1025.5 - 0.0 - - - - - - -
16/09:30am 13.8 N 7 10 1025.3 - 0.0 - - - - - - -
16/09:00am 12.6 NNE 9 15 1025.3 - 0.2 - - - - - - -
16/08:30am 11.7 NNE 12 20 1025.3 - 0.2 - - - - - - -
16/08:00am 10.9 N 13 19 1025.3 - 0.2 - - - - - - -
16/07:30am 10.7 NNE 12 18 1025.1 - 0.2 - - - - - - -
16/07:00am 10.2 NNE 14 19 1025.0 - 0.2 - - - - - - -
16/06:30am 10.0 NNE 13 17 1024.9 - 0.0 - - - - - - -
16/06:00am 9.9 N 13 19 1024.7 - 0.0 - - - - - - -
16/05:30am 9.9 N 14 20 1024.6 - 0.0 - - - - - - -
16/05:00am 9.9 N 14 20 1024.5 - 0.0 - - - - - - -
16/04:30am 10.1 N 15 21 1024.6 - 0.0 - - - - - - -
16/04:00am 9.9 NNE 14 20 1024.6 - 0.0 - - - - - - -
16/03:30am 10.1 NNE 13 17 1024.8 - 0.0 - - - - - - -
16/03:00am 10.1 NE 8 14 1025.4 - 0.0 - - - - - - -
16/02:30am 9.7 NE 5 8 1025.7 - 0.0 - - - - - - -
16/02:00am 9.7 ENE 3 7 1025.9 - 0.0 - - - - - - -
16/01:30am 9.6 E 4 8 1026.1 - 0.0 - - - - - - -
16/01:00am 9.6 E 3 5 1026.2 - 0.0 - - - - - - -
16/12:30am 9.6 E 3 5 1026.3 - 0.0 - - - - - - -
16/12:00am 9.6 ESE 4 6 1026.3 - 0.0 - - - - - - -
 
Date/Time
EDT
Temp
°C
Wind Pressure Rain since
9am
mm
Weather Cloud Vis
km
Sea
Height
m
Swell
Dir  Spd
kts
Gust
kts
hPa Trend Height
m
Period
s
Dir
15/11:30pm 9.6 S 5 8 1026.3 - 0.0 - - - - - - -
15/11:00pm 9.7 NNE 1 2 1026.2 - 0.0 - - - - - - -
15/10:30pm 9.7 SSW 3 5 1026.1 - 0.0 - - - - - - -
15/10:00pm 9.7 S 5 7 1026.1 - 0.0 - - - - - - -
15/09:30pm 9.7 SSW 5 7 1025.8 - 0.0 - - - - - - -
15/09:00pm 9.7 SSW 7 10 1025.6 - 0.0 - - - - - - -
15/08:30pm 9.7 SW 6 8 1025.3 - 0.0 - - - - - - -
15/08:00pm 9.7 SW 8 10 1024.8 - 0.0 - - - - - - -
15/07:30pm 9.7 SW 8 10 1024.3 - 0.0 - - - - - - -
15/07:00pm 10.3 WSW 7 11 1024.1 - 0.0 - - - - - - -
15/06:30pm 10.5 SW 7 14 1023.9 - 0.0 - - - - - - -
15/06:00pm 10.7 SW 12 17 1023.4 - 0.0 - - - - - - -
15/05:30pm 10.9 SW 12 18 1023.2 - 0.0 - - - - - - -
15/05:00pm 11.8 SW 12 18 1022.9 - 0.0 - - - - - - -
15/04:30pm 12.1 SW 11 18 1022.8 - 0.0 - - - - - - -
15/04:00pm 12.0 SW 15 21 1022.6 - 0.0 - - - - - - -
15/03:30pm 13.0 SSW 11 19 1022.4 - 0.0 - - - - - - -
15/03:00pm 12.8 SSW 9 17 1022.3 - 0.0 - - - - - - -
15/02:30pm 13.1 SSW 9 16 1022.2 - 0.0 - - - - - - -
15/02:00pm 13.1 SSW 10 17 1022.3 - 0.0 - - - - - - -
15/01:30pm 12.9 SSW 9 15 1022.1 - 0.0 - - - - - - -
15/01:00pm 13.8 SSW 9 13 1022.0 - 0.0 - - - - - - -
15/12:30pm 13.3 S 7 12 1021.8 - 0.0 - - - - - - -
15/12:00pm 14.1 SE 6 8 1021.6 - 0.0 - - - - - - -
15/11:30am 13.4 E 6 8 1021.4 - 0.0 - - - - - - -
15/11:00am 15.0 E 2 5 1021.2 - 0.0 - - - - - - -
15/10:30am 15.9 WNW 6 8 1021.2 - 0.0 - - - - - - -
15/10:00am 15.8 WNW 6 9 1020.9 - 0.0 - - - - - - -
15/09:30am 15.6 WNW 5 9 1020.6 - 0.0 - - - - - - -
15/09:00am 14.8 WNW 6 10 1020.1 - 0.0 - - - - - - -
15/08:30am 14.1 WNW 4 9 1019.9 - 0.0 - - - - - - -
15/08:00am 13.7 WNW 7 11 1019.6 - 0.0 - - - - - - -
15/07:30am 13.2 WNW 7 12 1019.0 - 0.0 - - - - - - -
15/07:00am 12.7 WNW 8 13 1018.3 - 0.0 - - - - - - -
15/06:30am 12.5 W 10 17 1017.7 - 0.0 - - - - - - -
15/06:00am 12.1 WNW 6 14 1017.3 - 0.0 - - - - - - -
15/05:30am 11.9 W 9 15 1017.1 - 0.0 - - - - - - -
15/05:00am 11.9 W 7 21 1017.0 - 0.0 - - - - - - -
15/04:30am 11.7 NW 7 19 1017.1 - 0.0 - - - - - - -
15/04:00am 11.5 WNW 10 21 1017.3 - 0.0 - - - - - - -
15/03:30am 11.5 WNW 11 19 1017.7 - 0.0 - - - - - - -
15/03:00am 11.8 WNW 11 19 1017.8 - 0.0 - - - - - - -
15/02:30am 12.1 WNW 12 21 1017.8 - 0.0 - - - - - - -
15/02:00am 11.8 WNW 14 22 1017.9 - 0.0 - - - - - - -
15/01:30am 11.8 WNW 16 24 1018.3 - 0.0 - - - - - - -
15/01:00am 11.9 WNW 15 23 1018.4 - 0.0 - - - - - - -
15/12:30am 12.2 NW 11 21 1018.5 - 0.0 - - - - - - -
15/12:00am 12.1 WNW 12 19 1018.7 - 0.0 - - - - - - -
 
Date/Time
EDT
Temp
°C
Wind Pressure Rain since
9am
mm
Weather Cloud Vis
km
Sea
Height
m
Swell
Dir  Spd
kts
Gust
kts
hPa Trend Height
m
Period
s
Dir
14/11:30pm 12.2 WNW 12 19 1018.7 - 0.0 - - - - - - -
14/11:00pm 12.3 WNW 12 17 1018.9 - 0.0 - - - - - - -
14/10:30pm 12.5 NW 11 15 1019.0 - 0.0 - - - - - - -
14/10:00pm 12.6 NW 12 17 1019.1 - 0.0 - - - - - - -
14/09:30pm 12.7 WNW 12 18 1019.3 - 0.0 - - - - - - -
14/09:00pm 12.7 NW 12 15 1019.6 - 0.0 - - - - - - -
14/08:30pm 12.4 NW 11 14 1019.4 - 0.0 - - - - - - -
14/08:00pm 11.8 WNW 8 11 1019.3 - 0.0 - - - - - - -
14/07:30pm 10.1 N 5 7 1019.3 - 0.0 - - - - - - -
14/07:00pm 10.7 N 5 9 1019.2 - 0.0 - - - - - - -
14/06:30pm 11.1 NNE 5 8 1019.2 - 0.0 - - - - - - -
14/06:00pm 11.1 NNE 8 12 1019.0 - 0.0 - - - - - - -
14/05:30pm 11.2 NNE 11 15 1019.0 - 0.0 - - - - - - -
14/05:00pm 11.6 NNE 6 10 1019.3 - 0.0 - - - - - - -
14/04:30pm 11.7 NE 7 11 1019.3 - 0.0 - - - - - - -
14/04:00pm 12.4 NNE 8 10 1019.7 - 0.0 - - - - - - -
14/03:30pm 14.3 WNW 7 11 1019.9 - 0.0 - - - - - - -
14/03:00pm 14.0 WNW 6 10 1020.1 - 0.0 - - - - - - -

Other Formats:

Comma delimited format used in spreadsheet applications
http://www.bom.gov.au/fwo/IDT60701/IDT60701.95986.axf

JavaScript Object Notation format (JSON) in row-major order
http://www.bom.gov.au/fwo/IDT60701/IDT60701.95986.json